WZZ66HG EPWA-LPPR
Flight info
| Callsign | WZZ66HG |
|---|---|
| Flight time | N/A |
| Altitude | 34000 |
| Route | SOXER N869 UVIVI DCT TOMTI DCT OKG DCT AMOSA N869 NATOR DCT LUTIX DCT BENOT DCT NEMOS DCT NINTU DCT MEBAK DCT REPSI DCT LERGA DCT MINSO DCT NARAK DCT AGN DCT PIPOR L866 PPN DCT MIRPO DCT DGO DCT NEA DCT ZMR L155 ADORO DCT INKIT |
| Aircraft | A21N/M-SDE1E2E3FGIJ1J4RWXY/LB1 |
Departure
| Time | 2026-05-07 14:51 |
|---|---|
| Airport | Warsaw Chopin Airport (EPWA) |
Arrival
| Time | N/A |
|---|---|
| Airport | Francisco de Sá Carneiro Airport (LPPR) |
| Time | Latitude | Longitude | Altitude | Speed | Heading |
|---|---|---|---|---|---|
| 2026-05-07 14:16 | 52.17042 | 20.96823 | 331 ft | 0 kts | 97° |
| 2026-05-07 14:45 | 52.17042 | 20.96828 | 331 ft | 1 kts | 97° |
| 2026-05-07 14:46 | 52.17042 | 20.96853 | 331 ft | 2 kts | 86° |
| 2026-05-07 14:46 | 52.17049 | 20.96891 | 332 ft | 6 kts | 71° |
| 2026-05-07 14:46 | 52.17022 | 20.96969 | 333 ft | 12 kts | 156° |
| 2026-05-07 14:46 | 52.16925 | 20.97052 | 334 ft | 18 kts | 153° |
| 2026-05-07 14:47 | 52.16793 | 20.97166 | 336 ft | 22 kts | 151° |
| 2026-05-07 14:47 | 52.16658 | 20.97287 | 336 ft | 18 kts | 150° |
| 2026-05-07 14:47 | 52.16565 | 20.97418 | 336 ft | 18 kts | 120° |
| 2026-05-07 14:47 | 52.16507 | 20.97609 | 337 ft | 19 kts | 115° |
| 2026-05-07 14:48 | 52.16450 | 20.97813 | 336 ft | 20 kts | 115° |
| 2026-05-07 14:48 | 52.16389 | 20.98029 | 335 ft | 21 kts | 114° |
| 2026-05-07 14:48 | 52.16330 | 20.98243 | 336 ft | 20 kts | 114° |
| 2026-05-07 14:48 | 52.16262 | 20.98454 | 335 ft | 15 kts | 143° |
| 2026-05-07 14:49 | 52.16216 | 20.98460 | 334 ft | 0 kts | 201° |
| 2026-05-07 14:49 | 52.16215 | 20.98459 | 334 ft | 1 kts | 201° |
| 2026-05-07 14:49 | 52.16195 | 20.98445 | 334 ft | 5 kts | 205° |
| 2026-05-07 14:49 | 52.16150 | 20.98411 | 333 ft | 9 kts | 205° |
| 2026-05-07 14:50 | 52.16120 | 20.98327 | 333 ft | 10 kts | 291° |
| 2026-05-07 14:50 | 52.16125 | 20.98310 | 333 ft | 4 kts | 295° |
| 2026-05-07 14:50 | 52.16257 | 20.97842 | 334 ft | 86 kts | 294° |
| 2026-05-07 14:50 | 52.16608 | 20.96595 | 334 ft | 154 kts | 293° |
| 2026-05-07 14:51 | 52.17092 | 20.94881 | 824 ft | 171 kts | 295° |
| 2026-05-07 14:51 | 52.17586 | 20.93133 | 1626 ft | 174 kts | 296° |
| 2026-05-07 14:51 | 52.18084 | 20.91378 | 2451 ft | 170 kts | 295° |
| 2026-05-07 14:51 | 52.18402 | 20.89484 | 2884 ft | 183 kts | 278° |
| 2026-05-07 14:52 | 52.18356 | 20.87293 | 3192 ft | 205 kts | 265° |
| 2026-05-07 14:52 | 52.18146 | 20.84901 | 3620 ft | 221 kts | 267° |
| 2026-05-07 14:52 | 52.18162 | 20.82333 | 4088 ft | 235 kts | 279° |
| 2026-05-07 14:52 | 52.18476 | 20.79640 | 4544 ft | 252 kts | 283° |
| 2026-05-07 14:53 | 52.18874 | 20.76809 | 5143 ft | 262 kts | 283° |
| 2026-05-07 14:53 | 52.19285 | 20.73941 | 5965 ft | 263 kts | 283° |
| 2026-05-07 14:53 | 52.19550 | 20.71018 | 6767 ft | 264 kts | 270° |
| 2026-05-07 14:53 | 52.19286 | 20.68082 | 7529 ft | 267 kts | 254° |
| 2026-05-07 14:54 | 52.18690 | 20.65236 | 8285 ft | 269 kts | 251° |
| 2026-05-07 14:54 | 52.18043 | 20.62382 | 9018 ft | 272 kts | 250° |
| 2026-05-07 14:54 | 52.17390 | 20.59499 | 9735 ft | 275 kts | 250° |
| 2026-05-07 14:54 | 52.16734 | 20.56582 | 10386 ft | 279 kts | 250° |
| 2026-05-07 14:55 | 52.16056 | 20.53547 | 10749 ft | 294 kts | 250° |
| 2026-05-07 14:55 | 52.15355 | 20.50370 | 11245 ft | 303 kts | 251° |
| 2026-05-07 14:55 | 52.14722 | 20.47115 | 11944 ft | 304 kts | 252° |
| 2026-05-07 14:55 | 52.14100 | 20.43842 | 12637 ft | 305 kts | 252° |
| 2026-05-07 14:56 | 52.13474 | 20.40551 | 13305 ft | 307 kts | 251° |
| 2026-05-07 14:56 | 52.12844 | 20.37242 | 13933 ft | 309 kts | 251° |
| 2026-05-07 14:56 | 52.12204 | 20.33898 | 14533 ft | 312 kts | 250° |
| 2026-05-07 14:56 | 52.11559 | 20.30529 | 15123 ft | 315 kts | 250° |
| 2026-05-07 14:57 | 52.10907 | 20.27123 | 15669 ft | 319 kts | 250° |
| 2026-05-07 14:57 | 52.10248 | 20.23686 | 16215 ft | 322 kts | 250° |
| 2026-05-07 14:57 | 52.09579 | 20.20209 | 16748 ft | 325 kts | 250° |
| 2026-05-07 14:57 | 52.08902 | 20.16700 | 17259 ft | 329 kts | 250° |
| 2026-05-07 14:58 | 52.08215 | 20.13149 | 17760 ft | 332 kts | 250° |
| 2026-05-07 14:58 | 52.07521 | 20.09566 | 18250 ft | 336 kts | 250° |
| 2026-05-07 14:58 | 52.06820 | 20.05952 | 18760 ft | 338 kts | 250° |
| 2026-05-07 14:58 | 52.06113 | 20.02316 | 19293 ft | 340 kts | 250° |
| 2026-05-07 14:59 | 52.05403 | 19.98668 | 19819 ft | 341 kts | 249° |
| 2026-05-07 14:59 | 52.04690 | 19.95013 | 20340 ft | 341 kts | 249° |
| 2026-05-07 14:59 | 52.03958 | 19.91371 | 20873 ft | 342 kts | 248° |
| 2026-05-07 14:59 | 52.03178 | 19.87748 | 21389 ft | 342 kts | 247° |
| 2026-05-07 15:00 | 52.02386 | 19.84123 | 21879 ft | 343 kts | 247° |
| 2026-05-07 15:00 | 52.01590 | 19.80485 | 22337 ft | 344 kts | 247° |
| 2026-05-07 15:00 | 52.00795 | 19.76840 | 22789 ft | 345 kts | 247° |
| 2026-05-07 15:00 | 51.99994 | 19.73172 | 23173 ft | 348 kts | 247° |
| 2026-05-07 15:01 | 51.99182 | 19.69460 | 23498 ft | 352 kts | 247° |
| 2026-05-07 15:01 | 51.98360 | 19.65706 | 23901 ft | 355 kts | 247° |
| 2026-05-07 15:01 | 51.97535 | 19.61937 | 24289 ft | 357 kts | 246° |
| 2026-05-07 15:01 | 51.96704 | 19.58145 | 24654 ft | 360 kts | 246° |
| 2026-05-07 15:02 | 51.95864 | 19.54316 | 25035 ft | 362 kts | 246° |
| 2026-05-07 15:02 | 51.95021 | 19.50478 | 25382 ft | 364 kts | 246° |
| 2026-05-07 15:02 | 51.94171 | 19.46615 | 25730 ft | 366 kts | 246° |
| 2026-05-07 15:02 | 51.93317 | 19.42736 | 26088 ft | 368 kts | 246° |
| 2026-05-07 15:03 | 51.92458 | 19.38841 | 26426 ft | 370 kts | 246° |
| 2026-05-07 15:03 | 51.91589 | 19.34920 | 26745 ft | 372 kts | 245° |
| 2026-05-07 15:03 | 51.90717 | 19.30985 | 27084 ft | 374 kts | 245° |
| 2026-05-07 15:03 | 51.89840 | 19.27027 | 27399 ft | 376 kts | 245° |
| 2026-05-07 15:04 | 51.88946 | 19.23051 | 27714 ft | 378 kts | 245° |
| 2026-05-07 15:04 | 51.88046 | 19.19062 | 28061 ft | 380 kts | 245° |
| 2026-05-07 15:04 | 51.87144 | 19.15056 | 28384 ft | 382 kts | 245° |
| 2026-05-07 15:04 | 51.86240 | 19.11019 | 28687 ft | 384 kts | 245° |
| 2026-05-07 15:05 | 51.85350 | 19.06955 | 28994 ft | 386 kts | 245° |
| 2026-05-07 15:05 | 51.84460 | 19.02866 | 29300 ft | 388 kts | 245° |
| 2026-05-07 15:05 | 51.83563 | 18.98757 | 29611 ft | 389 kts | 245° |
| 2026-05-07 15:05 | 51.82660 | 18.94636 | 29903 ft | 391 kts | 245° |
| 2026-05-07 15:06 | 51.81752 | 18.90505 | 30199 ft | 393 kts | 245° |
| 2026-05-07 15:06 | 51.80836 | 18.86350 | 30495 ft | 395 kts | 245° |
| 2026-05-07 15:06 | 51.79916 | 18.82187 | 30786 ft | 396 kts | 245° |
| 2026-05-07 15:06 | 51.78989 | 18.78007 | 31070 ft | 397 kts | 245° |
| 2026-05-07 15:07 | 51.78059 | 18.73821 | 31355 ft | 399 kts | 245° |
| 2026-05-07 15:07 | 51.77125 | 18.69619 | 31636 ft | 400 kts | 245° |
| 2026-05-07 15:07 | 51.76185 | 18.65397 | 31882 ft | 402 kts | 245° |
| 2026-05-07 15:07 | 51.75239 | 18.61156 | 32122 ft | 404 kts | 245° |
| 2026-05-07 15:08 | 51.74289 | 18.56898 | 32361 ft | 406 kts | 245° |
| 2026-05-07 15:08 | 51.73335 | 18.52631 | 32591 ft | 407 kts | 245° |
| 2026-05-07 15:08 | 51.72374 | 18.48342 | 32874 ft | 407 kts | 245° |
| 2026-05-07 15:08 | 51.71416 | 18.44074 | 33176 ft | 407 kts | 245° |
| 2026-05-07 15:09 | 51.70454 | 18.39798 | 33426 ft | 408 kts | 245° |
| 2026-05-07 15:09 | 51.69490 | 18.35521 | 33656 ft | 409 kts | 245° |
| 2026-05-07 15:09 | 51.68522 | 18.31229 | 33880 ft | 409 kts | 245° |
| 2026-05-07 15:09 | 51.67553 | 18.26926 | 33923 ft | 410 kts | 244° |
| 2026-05-07 15:10 | 51.65609 | 18.18337 | 33934 ft | 409 kts | 244° |
| 2026-05-07 15:10 | 51.63656 | 18.09760 | 33934 ft | 409 kts | 245° |
| 2026-05-07 15:11 | 51.61698 | 18.01196 | 33934 ft | 410 kts | 245° |
| 2026-05-07 15:11 | 51.59728 | 17.92627 | 33934 ft | 411 kts | 244° |
| 2026-05-07 15:12 | 51.57744 | 17.84037 | 33934 ft | 412 kts | 244° |
| 2026-05-07 15:12 | 51.55751 | 17.75452 | 33941 ft | 413 kts | 245° |
| 2026-05-07 15:13 | 51.53749 | 17.66847 | 33933 ft | 413 kts | 244° |
| 2026-05-07 15:13 | 51.51739 | 17.58243 | 33932 ft | 413 kts | 244° |
| 2026-05-07 15:14 | 51.49722 | 17.49644 | 33936 ft | 414 kts | 244° |
| 2026-05-07 15:14 | 51.47698 | 17.41043 | 33937 ft | 414 kts | 244° |
| 2026-05-07 15:15 | 51.45667 | 17.32449 | 33943 ft | 414 kts | 244° |
| 2026-05-07 15:15 | 51.43633 | 17.23844 | 33941 ft | 415 kts | 244° |
| 2026-05-07 15:16 | 51.41584 | 17.15223 | 33942 ft | 416 kts | 244° |
| 2026-05-07 15:16 | 51.39525 | 17.06600 | 33944 ft | 416 kts | 244° |
| 2026-05-07 15:17 | 51.37458 | 16.97991 | 33932 ft | 416 kts | 244° |
| 2026-05-07 15:17 | 51.35378 | 16.89367 | 33935 ft | 418 kts | 244° |
| 2026-05-07 15:18 | 51.33285 | 16.80719 | 33950 ft | 419 kts | 244° |
| 2026-05-07 15:18 | 51.31186 | 16.72074 | 33953 ft | 419 kts | 244° |
| 2026-05-07 15:19 | 51.29077 | 16.63429 | 33936 ft | 420 kts | 244° |
| 2026-05-07 15:19 | 51.26954 | 16.54769 | 33954 ft | 421 kts | 244° |
| 2026-05-07 15:20 | 51.24828 | 16.46115 | 33955 ft | 420 kts | 244° |
| 2026-05-07 15:20 | 51.22691 | 16.37456 | 33958 ft | 421 kts | 244° |
| 2026-05-07 15:21 | 51.20552 | 16.28811 | 33955 ft | 421 kts | 243° |
| 2026-05-07 15:21 | 51.18406 | 16.20157 | 33960 ft | 422 kts | 243° |
| 2026-05-07 15:22 | 51.16244 | 16.11487 | 33950 ft | 423 kts | 244° |
| 2026-05-07 15:22 | 51.14067 | 16.02805 | 33957 ft | 424 kts | 244° |
| 2026-05-07 15:23 | 51.11882 | 15.94117 | 33933 ft | 425 kts | 244° |
| 2026-05-07 15:23 | 51.09683 | 15.85418 | 33945 ft | 425 kts | 244° |
| 2026-05-07 15:24 | 51.07473 | 15.76713 | 33936 ft | 426 kts | 244° |
| 2026-05-07 15:24 | 51.05251 | 15.67991 | 33947 ft | 427 kts | 244° |
| 2026-05-07 15:25 | 51.03022 | 15.59271 | 33940 ft | 427 kts | 244° |
| 2026-05-07 15:25 | 51.00785 | 15.50555 | 33935 ft | 429 kts | 244° |
| 2026-05-07 15:26 | 50.98537 | 15.41830 | 33948 ft | 429 kts | 244° |
| 2026-05-07 15:26 | 50.96263 | 15.33036 | 33927 ft | 431 kts | 244° |
| 2026-05-07 15:27 | 50.93860 | 15.24339 | 33942 ft | 431 kts | 242° |
| 2026-05-07 15:27 | 50.91351 | 15.15685 | 33952 ft | 431 kts | 242° |
| 2026-05-07 15:28 | 50.88835 | 15.07077 | 33957 ft | 431 kts | 241° |
| 2026-05-07 15:28 | 50.86299 | 14.98512 | 33953 ft | 432 kts | 242° |
| 2026-05-07 15:29 | 50.83758 | 14.89915 | 33965 ft | 433 kts | 242° |
| 2026-05-07 15:29 | 50.81220 | 14.81323 | 33968 ft | 433 kts | 242° |
| 2026-05-07 15:30 | 50.78678 | 14.72741 | 33970 ft | 433 kts | 242° |
| 2026-05-07 15:30 | 50.76125 | 14.64151 | 33970 ft | 434 kts | 242° |
| 2026-05-07 15:31 | 50.73561 | 14.55548 | 33975 ft | 435 kts | 243° |
| 2026-05-07 15:31 | 50.70991 | 14.46955 | 33975 ft | 434 kts | 243° |
| 2026-05-07 15:32 | 50.68418 | 14.38385 | 33978 ft | 434 kts | 243° |
| 2026-05-07 15:32 | 50.65837 | 14.29804 | 33980 ft | 434 kts | 242° |
| 2026-05-07 15:33 | 50.63255 | 14.21237 | 33985 ft | 435 kts | 242° |
| 2026-05-07 15:33 | 50.60655 | 14.12654 | 33988 ft | 436 kts | 243° |
| 2026-05-07 15:34 | 50.58039 | 14.04059 | 33979 ft | 437 kts | 243° |
| 2026-05-07 15:34 | 50.55417 | 13.95476 | 33980 ft | 437 kts | 243° |
| 2026-05-07 15:35 | 50.52788 | 13.86900 | 33992 ft | 437 kts | 243° |
| 2026-05-07 15:35 | 50.50153 | 13.78334 | 33989 ft | 437 kts | 243° |
| 2026-05-07 15:36 | 50.47510 | 13.69775 | 33988 ft | 437 kts | 243° |
| 2026-05-07 15:36 | 50.44864 | 13.61232 | 33996 ft | 437 kts | 243° |
| 2026-05-07 15:37 | 50.42208 | 13.52691 | 33992 ft | 438 kts | 243° |
| 2026-05-07 15:37 | 50.39542 | 13.44148 | 33994 ft | 439 kts | 243° |
| 2026-05-07 15:38 | 50.36861 | 13.35584 | 33990 ft | 439 kts | 243° |
| 2026-05-07 15:38 | 50.34179 | 13.27026 | 33987 ft | 440 kts | 243° |
| 2026-05-07 15:39 | 50.31488 | 13.18468 | 33988 ft | 439 kts | 243° |
| 2026-05-07 15:39 | 50.28788 | 13.09920 | 33993 ft | 440 kts | 243° |
| 2026-05-07 15:40 | 50.26074 | 13.01368 | 33997 ft | 440 kts | 243° |
| 2026-05-07 15:40 | 50.23356 | 12.92837 | 34009 ft | 441 kts | 243° |
| 2026-05-07 15:41 | 50.20628 | 12.84300 | 34014 ft | 440 kts | 243° |
| 2026-05-07 15:41 | 50.17898 | 12.75786 | 34011 ft | 441 kts | 243° |
| 2026-05-07 15:42 | 50.15161 | 12.67282 | 33999 ft | 440 kts | 243° |
| 2026-05-07 15:42 | 50.12417 | 12.58785 | 33998 ft | 440 kts | 243° |
| 2026-05-07 15:43 | 50.09669 | 12.50300 | 34002 ft | 440 kts | 244° |
| 2026-05-07 15:43 | 50.06912 | 12.41821 | 33998 ft | 441 kts | 244° |
| 2026-05-07 15:44 | 50.04095 | 12.33392 | 33999 ft | 441 kts | 242° |
| 2026-05-07 15:44 | 50.01242 | 12.24991 | 34000 ft | 441 kts | 242° |
| 2026-05-07 15:45 | 49.98387 | 12.16607 | 33998 ft | 440 kts | 242° |
| 2026-05-07 15:45 | 49.95525 | 12.08234 | 34001 ft | 441 kts | 242° |
| 2026-05-07 15:46 | 49.91218 | 11.95675 | 33999 ft | 441 kts | 242° |
| 2026-05-07 15:47 | 49.88326 | 11.87309 | 33999 ft | 441 kts | 242° |
| 2026-05-07 15:47 | 49.85419 | 11.78971 | 34000 ft | 441 kts | 242° |
| 2026-05-07 15:48 | 49.82519 | 11.70635 | 34002 ft | 441 kts | 242° |
| 2026-05-07 15:48 | 49.79620 | 11.62307 | 34006 ft | 441 kts | 242° |
| 2026-05-07 15:49 | 49.76720 | 11.53997 | 34015 ft | 441 kts | 242° |
| 2026-05-07 15:49 | 49.73812 | 11.45688 | 34011 ft | 441 kts | 243° |
| 2026-05-07 15:50 | 49.70898 | 11.37388 | 34014 ft | 442 kts | 243° |
| 2026-05-07 15:50 | 49.67976 | 11.29074 | 34010 ft | 442 kts | 242° |
| 2026-05-07 15:51 | 49.65050 | 11.20766 | 34022 ft | 442 kts | 242° |
| 2026-05-07 15:51 | 49.62118 | 11.12484 | 34026 ft | 442 kts | 242° |
| 2026-05-07 15:52 | 49.59175 | 11.04200 | 34034 ft | 442 kts | 242° |
| 2026-05-07 15:52 | 49.56227 | 10.95937 | 34031 ft | 442 kts | 242° |
| 2026-05-07 15:53 | 49.53215 | 10.87727 | 34041 ft | 443 kts | 239° |
| 2026-05-07 15:53 | 49.49710 | 10.79984 | 34037 ft | 443 kts | 233° |
| 2026-05-07 15:54 | 49.45653 | 10.72886 | 34029 ft | 444 kts | 227° |
| 2026-05-07 15:54 | 49.41365 | 10.66100 | 34034 ft | 443 kts | 227° |
| 2026-05-07 15:55 | 49.37136 | 10.59264 | 34035 ft | 442 kts | 228° |
| 2026-05-07 15:55 | 49.32890 | 10.52471 | 34042 ft | 442 kts | 227° |
| 2026-05-07 15:56 | 49.28537 | 10.45843 | 34041 ft | 443 kts | 226° |
| 2026-05-07 15:56 | 49.24181 | 10.39217 | 34037 ft | 443 kts | 227° |
| 2026-05-07 15:57 | 49.19870 | 10.32553 | 34029 ft | 442 kts | 227° |
| 2026-05-07 15:57 | 49.15580 | 10.25842 | 34023 ft | 442 kts | 228° |
| 2026-05-07 15:58 | 49.11594 | 10.18755 | 34024 ft | 441 kts | 232° |
| 2026-05-07 15:58 | 49.07760 | 10.11487 | 34018 ft | 440 kts | 232° |
| 2026-05-07 15:59 | 49.03935 | 10.04252 | 34036 ft | 440 kts | 233° |
| 2026-05-07 15:59 | 49.00103 | 9.97024 | 34039 ft | 439 kts | 233° |
| 2026-05-07 16:00 | 48.96272 | 9.89815 | 34037 ft | 440 kts | 233° |
| 2026-05-07 16:00 | 48.92431 | 9.82610 | 34043 ft | 440 kts | 232° |
| 2026-05-07 16:01 | 48.88583 | 9.75425 | 34034 ft | 439 kts | 232° |
| 2026-05-07 16:01 | 48.84721 | 9.68270 | 34032 ft | 439 kts | 232° |
| 2026-05-07 16:02 | 48.80868 | 9.61120 | 34037 ft | 439 kts | 233° |
| 2026-05-07 16:02 | 48.77020 | 9.53975 | 34021 ft | 438 kts | 233° |
| 2026-05-07 16:03 | 48.73173 | 9.46857 | 34022 ft | 438 kts | 233° |
| 2026-05-07 16:03 | 48.69317 | 9.39741 | 34025 ft | 438 kts | 233° |
| 2026-05-07 16:04 | 48.65444 | 9.32607 | 34019 ft | 438 kts | 232° |
| 2026-05-07 16:04 | 48.61626 | 9.25452 | 34023 ft | 437 kts | 234° |
| 2026-05-07 16:05 | 48.58089 | 9.18012 | 34025 ft | 436 kts | 236° |
| 2026-05-07 16:05 | 48.54578 | 9.10578 | 34016 ft | 436 kts | 236° |
| 2026-05-07 16:06 | 48.51065 | 9.03156 | 34018 ft | 436 kts | 236° |
| 2026-05-07 16:06 | 48.47545 | 8.95735 | 34021 ft | 436 kts | 236° |
| 2026-05-07 16:07 | 48.44014 | 8.88311 | 34013 ft | 436 kts | 236° |
| 2026-05-07 16:07 | 48.40480 | 8.80902 | 34020 ft | 435 kts | 236° |
| 2026-05-07 16:08 | 48.36949 | 8.73518 | 34011 ft | 434 kts | 236° |
| 2026-05-07 16:08 | 48.33416 | 8.66148 | 34017 ft | 434 kts | 236° |
| 2026-05-07 16:09 | 48.29880 | 8.58792 | 34010 ft | 435 kts | 236° |
| 2026-05-07 16:09 | 48.26339 | 8.51443 | 34017 ft | 434 kts | 237° |
| 2026-05-07 16:10 | 48.22802 | 8.44129 | 34016 ft | 434 kts | 237° |
| 2026-05-07 16:10 | 48.18993 | 8.37130 | 34011 ft | 436 kts | 230° |
| 2026-05-07 16:11 | 48.14643 | 8.30805 | 34015 ft | 438 kts | 223° |
| 2026-05-07 16:11 | 48.09814 | 8.25267 | 34008 ft | 440 kts | 217° |
| 2026-05-07 16:12 | 48.04692 | 8.20304 | 34014 ft | 440 kts | 216° |
| 2026-05-07 16:12 | 47.99552 | 8.15360 | 33999 ft | 440 kts | 216° |
| 2026-05-07 16:13 | 47.94414 | 8.10429 | 34014 ft | 439 kts | 216° |
| 2026-05-07 16:13 | 47.89281 | 8.05516 | 34000 ft | 439 kts | 216° |
| 2026-05-07 16:14 | 47.84146 | 8.00640 | 34010 ft | 438 kts | 216° |
| 2026-05-07 16:14 | 47.79022 | 7.95775 | 34003 ft | 438 kts | 216° |
| 2026-05-07 16:15 | 47.73910 | 7.90921 | 33992 ft | 437 kts | 216° |
| 2026-05-07 16:15 | 47.68798 | 7.86074 | 33987 ft | 437 kts | 216° |
| 2026-05-07 16:16 | 47.63692 | 7.81240 | 33975 ft | 437 kts | 216° |
| 2026-05-07 16:16 | 47.58582 | 7.76416 | 33998 ft | 436 kts | 216° |
| 2026-05-07 16:17 | 47.53480 | 7.71609 | 33982 ft | 436 kts | 216° |
| 2026-05-07 16:17 | 47.48384 | 7.66819 | 33996 ft | 435 kts | 216° |
| 2026-05-07 16:18 | 47.43290 | 7.62041 | 33997 ft | 434 kts | 216° |
| 2026-05-07 16:18 | 47.38200 | 7.57278 | 34005 ft | 434 kts | 216° |
| 2026-05-07 16:19 | 47.33118 | 7.52530 | 34005 ft | 433 kts | 216° |
| 2026-05-07 16:19 | 47.28035 | 7.47791 | 34017 ft | 433 kts | 216° |
| 2026-05-07 16:20 | 47.22974 | 7.43044 | 34018 ft | 431 kts | 218° |
| 2026-05-07 16:20 | 47.18209 | 7.37778 | 34023 ft | 427 kts | 224° |
| 2026-05-07 16:21 | 47.13907 | 7.31842 | 34019 ft | 424 kts | 229° |
| 2026-05-07 16:21 | 47.10089 | 7.25300 | 34012 ft | 423 kts | 234° |
| 2026-05-07 16:22 | 47.06453 | 7.18563 | 34009 ft | 421 kts | 234° |
| 2026-05-07 16:22 | 47.02806 | 7.11855 | 34009 ft | 421 kts | 234° |
| 2026-05-07 16:23 | 46.99164 | 7.05193 | 34008 ft | 419 kts | 234° |
| 2026-05-07 16:23 | 46.95521 | 6.98545 | 34013 ft | 419 kts | 234° |
| 2026-05-07 16:24 | 46.91875 | 6.91908 | 34012 ft | 420 kts | 234° |
| 2026-05-07 16:24 | 46.88218 | 6.85288 | 34014 ft | 419 kts | 233° |
| 2026-05-07 16:25 | 46.84547 | 6.78704 | 34016 ft | 418 kts | 233° |
| 2026-05-07 16:25 | 46.80881 | 6.72116 | 34014 ft | 418 kts | 233° |
| 2026-05-07 16:26 | 46.77216 | 6.65531 | 34010 ft | 418 kts | 233° |
| 2026-05-07 16:26 | 46.73551 | 6.58953 | 34005 ft | 418 kts | 233° |
| 2026-05-07 16:27 | 46.69892 | 6.52400 | 34005 ft | 417 kts | 234° |
| 2026-05-07 16:27 | 46.66228 | 6.45852 | 34002 ft | 417 kts | 233° |
| 2026-05-07 16:28 | 46.62567 | 6.39323 | 34005 ft | 417 kts | 233° |
| 2026-05-07 16:28 | 46.58887 | 6.32774 | 34004 ft | 418 kts | 233° |
| 2026-05-07 16:29 | 46.55224 | 6.26248 | 34007 ft | 417 kts | 233° |
| 2026-05-07 16:29 | 46.51555 | 6.19737 | 34003 ft | 417 kts | 233° |
| 2026-05-07 16:30 | 46.47888 | 6.13256 | 33999 ft | 417 kts | 233° |
| 2026-05-07 16:30 | 46.44211 | 6.06774 | 33995 ft | 417 kts | 233° |
| 2026-05-07 16:31 | 46.40535 | 6.00311 | 33994 ft | 417 kts | 232° |
| 2026-05-07 16:31 | 46.36847 | 5.93842 | 33994 ft | 417 kts | 232° |
| 2026-05-07 16:32 | 46.33163 | 5.87395 | 33990 ft | 417 kts | 232° |
| 2026-05-07 16:32 | 46.29479 | 5.80961 | 33990 ft | 416 kts | 232° |
| 2026-05-07 16:33 | 46.25791 | 5.74536 | 33985 ft | 416 kts | 232° |
| 2026-05-07 16:33 | 46.22097 | 5.68112 | 33983 ft | 416 kts | 232° |
| 2026-05-07 16:34 | 46.18400 | 5.61701 | 33983 ft | 416 kts | 232° |
| 2026-05-07 16:34 | 46.14732 | 5.55216 | 33980 ft | 415 kts | 235° |
| 2026-05-07 16:35 | 46.11406 | 5.48417 | 33974 ft | 414 kts | 237° |
| 2026-05-07 16:35 | 46.08126 | 5.41592 | 33978 ft | 414 kts | 237° |
| 2026-05-07 16:35 | 46.06508 | 5.38232 | 33971 ft | 401 kts | 237° |
| 2026-05-07 16:36 | 46.04930 | 5.34956 | 33982 ft | 405 kts | 236° |
| 2026-05-07 16:36 | 46.01673 | 5.28173 | 33982 ft | 414 kts | 237° |
| 2026-05-07 16:37 | 45.98397 | 5.21376 | 33983 ft | 415 kts | 236° |
| 2026-05-07 16:37 | 45.95110 | 5.14584 | 33984 ft | 415 kts | 236° |
| 2026-05-07 16:38 | 45.91818 | 5.07805 | 33986 ft | 415 kts | 236° |
| 2026-05-07 16:38 | 45.88517 | 5.01037 | 33986 ft | 414 kts | 236° |
| 2026-05-07 16:39 | 45.85199 | 4.94287 | 33988 ft | 414 kts | 236° |
| 2026-05-07 16:39 | 45.81899 | 4.87557 | 33990 ft | 414 kts | 236° |
| 2026-05-07 16:40 | 45.78589 | 4.80804 | 33990 ft | 414 kts | 236° |
| 2026-05-07 16:40 | 45.75281 | 4.74056 | 33986 ft | 415 kts | 236° |
| 2026-05-07 16:41 | 45.71966 | 4.67322 | 33984 ft | 415 kts | 236° |
| 2026-05-07 16:41 | 45.68640 | 4.60598 | 33983 ft | 415 kts | 236° |
| 2026-05-07 16:42 | 45.65313 | 4.53883 | 33980 ft | 415 kts | 236° |
| 2026-05-07 16:42 | 45.61990 | 4.47182 | 33982 ft | 414 kts | 236° |
| 2026-05-07 16:43 | 45.58666 | 4.40487 | 33987 ft | 414 kts | 236° |
| 2026-05-07 16:43 | 45.55343 | 4.33803 | 33992 ft | 414 kts | 235° |
| 2026-05-07 16:44 | 45.52017 | 4.27121 | 33988 ft | 414 kts | 235° |
| 2026-05-07 16:44 | 45.48669 | 4.20440 | 33988 ft | 414 kts | 235° |
| 2026-05-07 16:45 | 45.45313 | 4.13766 | 33991 ft | 414 kts | 235° |
| 2026-05-07 16:45 | 45.41966 | 4.07116 | 33990 ft | 415 kts | 235° |
| 2026-05-07 16:46 | 45.38605 | 4.00454 | 33990 ft | 415 kts | 234° |
| 2026-05-07 16:46 | 45.35244 | 3.93805 | 33990 ft | 415 kts | 234° |
| 2026-05-07 16:47 | 45.31881 | 3.87167 | 33989 ft | 415 kts | 234° |
| 2026-05-07 16:47 | 45.28504 | 3.80517 | 33990 ft | 415 kts | 234° |
| 2026-05-07 16:48 | 45.25132 | 3.73882 | 33988 ft | 415 kts | 235° |
| 2026-05-07 16:48 | 45.21830 | 3.67189 | 33991 ft | 415 kts | 236° |
| 2026-05-07 16:49 | 45.18529 | 3.60476 | 33992 ft | 415 kts | 235° |
| 2026-05-07 16:49 | 45.15226 | 3.53783 | 33988 ft | 415 kts | 235° |
| 2026-05-07 16:50 | 45.11910 | 3.47084 | 33990 ft | 415 kts | 235° |
| 2026-05-07 16:50 | 45.08581 | 3.40378 | 33988 ft | 415 kts | 235° |
| 2026-05-07 16:51 | 45.05240 | 3.33660 | 33987 ft | 415 kts | 234° |
| 2026-05-07 16:51 | 45.01908 | 3.26950 | 33987 ft | 415 kts | 234° |
| 2026-05-07 16:52 | 44.98593 | 3.20302 | 33986 ft | 415 kts | 234° |
| 2026-05-07 16:52 | 44.95252 | 3.13629 | 33986 ft | 415 kts | 234° |
| 2026-05-07 16:53 | 44.91910 | 3.06972 | 33985 ft | 416 kts | 234° |
| 2026-05-07 16:53 | 44.88539 | 3.00284 | 33982 ft | 415 kts | 234° |
| 2026-05-07 16:54 | 44.85182 | 2.93663 | 33979 ft | 414 kts | 235° |
| 2026-05-07 16:54 | 44.82011 | 2.86875 | 33979 ft | 415 kts | 236° |
| 2026-05-07 16:55 | 44.78851 | 2.80039 | 33976 ft | 415 kts | 237° |
| 2026-05-07 16:55 | 44.75705 | 2.73236 | 33975 ft | 414 kts | 237° |
| 2026-05-07 16:56 | 44.72565 | 2.66455 | 33969 ft | 414 kts | 237° |
| 2026-05-07 16:56 | 44.67828 | 2.56247 | 33961 ft | 415 kts | 237° |
| 2026-05-07 16:57 | 44.64679 | 2.49480 | 33967 ft | 415 kts | 236° |
| 2026-05-07 16:57 | 44.61503 | 2.42671 | 33968 ft | 415 kts | 236° |
| 2026-05-07 16:58 | 44.58333 | 2.35897 | 33962 ft | 415 kts | 236° |
| 2026-05-07 16:58 | 44.55180 | 2.29149 | 33960 ft | 414 kts | 236° |
| 2026-05-07 16:59 | 44.52030 | 2.22422 | 33957 ft | 414 kts | 236° |
| 2026-05-07 16:59 | 44.48870 | 2.15703 | 33956 ft | 414 kts | 236° |
| 2026-05-07 17:00 | 44.45706 | 2.08996 | 33949 ft | 414 kts | 236° |
| 2026-05-07 17:00 | 44.42532 | 2.02286 | 33943 ft | 415 kts | 236° |
| 2026-05-07 17:01 | 44.39349 | 1.95571 | 33941 ft | 415 kts | 235° |
| 2026-05-07 17:01 | 44.36163 | 1.88861 | 33940 ft | 416 kts | 235° |
| 2026-05-07 17:02 | 44.32971 | 1.82156 | 33941 ft | 416 kts | 235° |
| 2026-05-07 17:02 | 44.29769 | 1.75452 | 33942 ft | 417 kts | 235° |
| 2026-05-07 17:03 | 44.26625 | 1.68683 | 33940 ft | 417 kts | 236° |
| 2026-05-07 17:03 | 44.23518 | 1.61902 | 33936 ft | 416 kts | 236° |
| 2026-05-07 17:04 | 44.20403 | 1.55124 | 33938 ft | 417 kts | 236° |
| 2026-05-07 17:04 | 44.17278 | 1.48350 | 33930 ft | 417 kts | 236° |
| 2026-05-07 17:05 | 44.14145 | 1.41577 | 33926 ft | 417 kts | 236° |
| 2026-05-07 17:05 | 44.11006 | 1.34808 | 33924 ft | 418 kts | 236° |
| 2026-05-07 17:06 | 44.07866 | 1.28026 | 33921 ft | 418 kts | 236° |
| 2026-05-07 17:06 | 44.04716 | 1.21243 | 33919 ft | 419 kts | 235° |
| 2026-05-07 17:07 | 44.01552 | 1.14464 | 33920 ft | 420 kts | 235° |
| 2026-05-07 17:07 | 43.98377 | 1.07678 | 33918 ft | 420 kts | 235° |
| 2026-05-07 17:08 | 43.95197 | 1.00895 | 33916 ft | 421 kts | 235° |
| 2026-05-07 17:08 | 43.92014 | 0.94121 | 33915 ft | 420 kts | 235° |
| 2026-05-07 17:09 | 43.88832 | 0.87352 | 33915 ft | 421 kts | 236° |
| 2026-05-07 17:09 | 43.85812 | 0.80427 | 33916 ft | 420 kts | 237° |
| 2026-05-07 17:10 | 43.82871 | 0.73634 | 33915 ft | 421 kts | 237° |
| 2026-05-07 17:10 | 43.79875 | 0.66704 | 33920 ft | 422 kts | 237° |
| 2026-05-07 17:11 | 43.76862 | 0.59741 | 33916 ft | 422 kts | 237° |
| 2026-05-07 17:11 | 43.73846 | 0.52782 | 33922 ft | 422 kts | 237° |
| 2026-05-07 17:12 | 43.70820 | 0.45817 | 33925 ft | 423 kts | 237° |
| 2026-05-07 17:12 | 43.67793 | 0.38866 | 33928 ft | 423 kts | 237° |
| 2026-05-07 17:13 | 43.64765 | 0.31923 | 33923 ft | 423 kts | 237° |
| 2026-05-07 17:13 | 43.61745 | 0.24990 | 33924 ft | 422 kts | 237° |
| 2026-05-07 17:14 | 43.58713 | 0.18062 | 33930 ft | 423 kts | 237° |
| 2026-05-07 17:14 | 43.55659 | 0.11109 | 33932 ft | 424 kts | 237° |
| 2026-05-07 17:15 | 43.52601 | 0.04170 | 33939 ft | 424 kts | 237° |
| 2026-05-07 17:15 | 43.49539 | -0.02761 | 33942 ft | 424 kts | 237° |
| 2026-05-07 17:16 | 43.46473 | -0.09686 | 33943 ft | 425 kts | 237° |
| 2026-05-07 17:16 | 43.43403 | -0.16604 | 33932 ft | 425 kts | 237° |
| 2026-05-07 17:17 | 43.40330 | -0.23513 | 33938 ft | 425 kts | 237° |
| 2026-05-07 17:17 | 43.37249 | -0.30424 | 33934 ft | 425 kts | 237° |
| 2026-05-07 17:18 | 43.34165 | -0.37323 | 33930 ft | 424 kts | 237° |
| 2026-05-07 17:18 | 43.31078 | -0.44212 | 33926 ft | 425 kts | 237° |
| 2026-05-07 17:19 | 43.27983 | -0.51103 | 33922 ft | 426 kts | 237° |
| 2026-05-07 17:19 | 43.24874 | -0.58012 | 33925 ft | 427 kts | 237° |
| 2026-05-07 17:20 | 43.21754 | -0.64928 | 33930 ft | 427 kts | 237° |
| 2026-05-07 17:20 | 43.18632 | -0.71858 | 33945 ft | 428 kts | 236° |
| 2026-05-07 17:21 | 43.15503 | -0.78780 | 33946 ft | 429 kts | 236° |
| 2026-05-07 17:21 | 43.12362 | -0.85704 | 33957 ft | 429 kts | 236° |
| 2026-05-07 17:22 | 43.09207 | -0.92632 | 33958 ft | 430 kts | 236° |
| 2026-05-07 17:22 | 43.06046 | -0.99560 | 33957 ft | 430 kts | 237° |
| 2026-05-07 17:23 | 43.02869 | -1.06506 | 33959 ft | 430 kts | 237° |
| 2026-05-07 17:23 | 42.99695 | -1.13419 | 33957 ft | 431 kts | 237° |
| 2026-05-07 17:24 | 42.96507 | -1.20344 | 33949 ft | 430 kts | 237° |